sensor_id;sensor_type;location;lat;lon;timestamp;temperature;humidity
17202;DHT22;8717;53.588;10.176;2023-08-06T00:01:27;16.70;99.90
17202;DHT22;8717;53.588;10.176;2023-08-06T00:03:54;16.70;99.90
17202;DHT22;8717;53.588;10.176;2023-08-06T00:06:22;16.70;99.90
17202;DHT22;8717;53.588;10.176;2023-08-06T00:08:48;16.70;99.90
17202;DHT22;8717;53.588;10.176;2023-08-06T00:11:17;16.60;99.90
17202;DHT22;8717;53.588;10.176;2023-08-06T00:13:44;16.60;99.90
17202;DHT22;8717;53.588;10.176;2023-08-06T00:16:12;16.50;99.90
17202;DHT22;8717;53.588;10.176;2023-08-06T00:18:39;16.50;99.90
17202;DHT22;8717;53.588;10.176;2023-08-06T00:21:06;16.40;99.90
17202;DHT22;8717;53.588;10.176;2023-08-06T00:23:33;16.40;99.90
17202;DHT22;8717;53.588;10.176;2023-08-06T00:26:00;16.30;99.90
17202;DHT22;8717;53.588;10.176;2023-08-06T00:28:28;16.20;99.90
17202;DHT22;8717;53.588;10.176;2023-08-06T00:30:56;16.10;99.90
17202;DHT22;8717;53.588;10.176;2023-08-06T00:33:23;16.00;99.90
17202;DHT22;8717;53.588;10.176;2023-08-06T00:35:51;16.00;99.90
17202;DHT22;8717;53.588;10.176;2023-08-06T00:38:17;15.90;99.90
17202;DHT22;8717;53.588;10.176;2023-08-06T00:40:44;15.90;99.90
17202;DHT22;8717;53.588;10.176;2023-08-06T00:43:12;15.90;99.90
17202;DHT22;8717;53.588;10.176;2023-08-06T00:45:40;15.80;99.90
17202;DHT22;8717;53.588;10.176;2023-08-06T00:48:07;15.80;99.90
17202;DHT22;8717;53.588;10.176;2023-08-06T00:50:34;15.70;99.90
17202;DHT22;8717;53.588;10.176;2023-08-06T00:53:01;15.70;99.90
17202;DHT22;8717;53.588;10.176;2023-08-06T00:55:28;15.60;99.90
17202;DHT22;8717;53.588;10.176;2023-08-06T00:57:55;15.60;99.90
17202;DHT22;8717;53.588;10.176;2023-08-06T01:00:23;15.60;99.90
17202;DHT22;8717;53.588;10.176;2023-08-06T01:02:52;15.60;99.90
17202;DHT22;8717;53.588;10.176;2023-08-06T01:05:20;15.50;99.90
17202;DHT22;8717;53.588;10.176;2023-08-06T01:08:00;15.50;99.90
17202;DHT22;8717;53.588;10.176;2023-08-06T01:10:41;15.40;99.90
17202;DHT22;8717;53.588;10.176;2023-08-06T01:13:18;15.40;99.90
17202;DHT22;8717;53.588;10.176;2023-08-06T01:15:50;15.40;99.90
17202;DHT22;8717;53.588;10.176;2023-08-06T01:18:20;15.40;99.90
17202;DHT22;8717;53.588;10.176;2023-08-06T01:20:48;15.40;99.90
17202;DHT22;8717;53.588;10.176;2023-08-06T01:23:15;15.40;99.90
17202;DHT22;8717;53.588;10.176;2023-08-06T01:25:48;15.30;99.90
17202;DHT22;8717;53.588;10.176;2023-08-06T01:28:22;15.30;99.90
17202;DHT22;8717;53.588;10.176;2023-08-06T01:30:50;15.20;99.90
17202;DHT22;8717;53.588;10.176;2023-08-06T01:33:21;15.20;99.90
17202;DHT22;8717;53.588;10.176;2023-08-06T01:35:50;15.20;99.90
17202;DHT22;8717;53.588;10.176;2023-08-06T01:38:18;15.10;99.90
17202;DHT22;8717;53.588;10.176;2023-08-06T01:40:45;15.10;99.90
17202;DHT22;8717;53.588;10.176;2023-08-06T01:43:12;15.10;99.90
17202;DHT22;8717;53.588;10.176;2023-08-06T01:45:39;15.10;99.90
17202;DHT22;8717;53.588;10.176;2023-08-06T01:48:06;15.10;99.90
17202;DHT22;8717;53.588;10.176;2023-08-06T01:50:33;15.10;99.90
17202;DHT22;8717;53.588;10.176;2023-08-06T01:53:01;15.10;99.90
17202;DHT22;8717;53.588;10.176;2023-08-06T01:55:29;15.00;99.90
17202;DHT22;8717;53.588;10.176;2023-08-06T01:57:56;15.00;99.90
17202;DHT22;8717;53.588;10.176;2023-08-06T02:00:22;15.00;99.90
17202;DHT22;8717;53.588;10.176;2023-08-06T02:02:50;15.00;99.90
17202;DHT22;8717;53.588;10.176;2023-08-06T02:05:17;15.00;99.90
17202;DHT22;8717;53.588;10.176;2023-08-06T02:07:44;14.90;99.90
17202;DHT22;8717;53.588;10.176;2023-08-06T02:10:12;14.90;99.90
17202;DHT22;8717;53.588;10.176;2023-08-06T02:12:39;14.90;99.90
17202;DHT22;8717;53.588;10.176;2023-08-06T02:15:07;14.90;99.90
17202;DHT22;8717;53.588;10.176;2023-08-06T02:17:34;14.80;99.90
17202;DHT22;8717;53.588;10.176;2023-08-06T02:20:01;14.80;99.90
17202;DHT22;8717;53.588;10.176;2023-08-06T02:22:28;14.80;99.90
17202;DHT22;8717;53.588;10.176;2023-08-06T02:24:55;14.80;99.90
17202;DHT22;8717;53.588;10.176;2023-08-06T02:27:23;14.80;99.90
17202;DHT22;8717;53.588;10.176;2023-08-06T02:29:49;14.80;99.90
17202;DHT22;8717;53.588;10.176;2023-08-06T02:32:16;14.80;99.90
17202;DHT22;8717;53.588;10.176;2023-08-06T02:34:43;14.90;99.90
17202;DHT22;8717;53.588;10.176;2023-08-06T02:37:09;14.80;99.90
17202;DHT22;8717;53.588;10.176;2023-08-06T02:39:38;14.90;99.90
17202;DHT22;8717;53.588;10.176;2023-08-06T02:42:06;14.90;99.90
17202;DHT22;8717;53.588;10.176;2023-08-06T02:44:34;14.90;99.90
17202;DHT22;8717;53.588;10.176;2023-08-06T02:47:01;14.90;99.90
17202;DHT22;8717;53.588;10.176;2023-08-06T02:49:28;14.80;99.90
17202;DHT22;8717;53.588;10.176;2023-08-06T02:51:55;14.80;99.90
17202;DHT22;8717;53.588;10.176;2023-08-06T02:54:22;14.90;99.90
17202;DHT22;8717;53.588;10.176;2023-08-06T02:56:49;14.80;99.90
17202;DHT22;8717;53.588;10.176;2023-08-06T02:59:29;14.80;99.90
17202;DHT22;8717;53.588;10.176;2023-08-06T03:02:08;14.80;99.90
17202;DHT22;8717;53.588;10.176;2023-08-06T03:04:56;14.80;99.90
17202;DHT22;8717;53.588;10.176;2023-08-06T03:07:27;14.80;99.90
17202;DHT22;8717;53.588;10.176;2023-08-06T03:09:59;14.70;99.90
17202;DHT22;8717;53.588;10.176;2023-08-06T03:12:27;14.70;99.90
17202;DHT22;8717;53.588;10.176;2023-08-06T03:14:57;14.80;99.90
17202;DHT22;8717;53.588;10.176;2023-08-06T03:17:26;14.80;99.90
17202;DHT22;8717;53.588;10.176;2023-08-06T03:19:53;14.80;99.90
17202;DHT22;8717;53.588;10.176;2023-08-06T03:22:20;14.80;99.90
17202;DHT22;8717;53.588;10.176;2023-08-06T03:24:50;14.80;99.90
17202;DHT22;8717;53.588;10.176;2023-08-06T03:27:18;14.80;99.90
17202;DHT22;8717;53.588;10.176;2023-08-06T03:29:44;14.80;99.90
17202;DHT22;8717;53.588;10.176;2023-08-06T03:32:11;14.80;99.90
17202;DHT22;8717;53.588;10.176;2023-08-06T03:34:41;14.70;99.90
17202;DHT22;8717;53.588;10.176;2023-08-06T03:37:07;14.70;99.90
17202;DHT22;8717;53.588;10.176;2023-08-06T03:39:34;14.70;99.90
17202;DHT22;8717;53.588;10.176;2023-08-06T03:42:01;14.70;99.90
17202;DHT22;8717;53.588;10.176;2023-08-06T03:44:28;14.70;99.90
17202;DHT22;8717;53.588;10.176;2023-08-06T03:46:54;14.70;99.90
17202;DHT22;8717;53.588;10.176;2023-08-06T03:49:21;14.70;99.90
17202;DHT22;8717;53.588;10.176;2023-08-06T03:51:49;14.70;99.90
17202;DHT22;8717;53.588;10.176;2023-08-06T03:54:16;14.60;99.90
17202;DHT22;8717;53.588;10.176;2023-08-06T03:56:43;14.60;99.90
17202;DHT22;8717;53.588;10.176;2023-08-06T03:59:09;14.60;99.90
17202;DHT22;8717;53.588;10.176;2023-08-06T04:01:37;14.60;99.90
17202;DHT22;8717;53.588;10.176;2023-08-06T04:04:03;14.60;99.90
17202;DHT22;8717;53.588;10.176;2023-08-06T04:06:30;14.50;99.90
17202;DHT22;8717;53.588;10.176;2023-08-06T04:08:58;14.50;99.90
17202;DHT22;8717;53.588;10.176;2023-08-06T04:11:25;14.50;99.90
17202;DHT22;8717;53.588;10.176;2023-08-06T04:13:52;14.50;99.90
17202;DHT22;8717;53.588;10.176;2023-08-06T04:16:19;14.50;99.90
17202;DHT22;8717;53.588;10.176;2023-08-06T04:18:47;14.40;99.90
17202;DHT22;8717;53.588;10.176;2023-08-06T04:21:14;14.40;99.90
17202;DHT22;8717;53.588;10.176;2023-08-06T04:23:41;14.30;99.90
17202;DHT22;8717;53.588;10.176;2023-08-06T04:26:10;14.40;99.90
17202;DHT22;8717;53.588;10.176;2023-08-06T04:28:37;14.40;99.90
17202;DHT22;8717;53.588;10.176;2023-08-06T04:31:04;14.40;99.90
17202;DHT22;8717;53.588;10.176;2023-08-06T04:33:33;14.40;99.90
17202;DHT22;8717;53.588;10.176;2023-08-06T04:36:06;14.40;99.90
17202;DHT22;8717;53.588;10.176;2023-08-06T04:38:33;14.40;99.90
17202;DHT22;8717;53.588;10.176;2023-08-06T04:41:02;14.30;99.90
17202;DHT22;8717;53.588;10.176;2023-08-06T04:43:31;14.30;99.90
17202;DHT22;8717;53.588;10.176;2023-08-06T04:45:58;14.30;99.90
17202;DHT22;8717;53.588;10.176;2023-08-06T04:48:25;14.40;99.90
17202;DHT22;8717;53.588;10.176;2023-08-06T04:50:52;14.40;99.90
17202;DHT22;8717;53.588;10.176;2023-08-06T04:53:20;14.40;99.90
17202;DHT22;8717;53.588;10.176;2023-08-06T04:55:47;14.40;99.90
17202;DHT22;8717;53.588;10.176;2023-08-06T04:58:14;14.40;99.90
17202;DHT22;8717;53.588;10.176;2023-08-06T05:00:42;14.40;99.90
17202;DHT22;8717;53.588;10.176;2023-08-06T05:03:09;14.40;99.90
17202;DHT22;8717;53.588;10.176;2023-08-06T05:05:36;14.40;99.90
17202;DHT22;8717;53.588;10.176;2023-08-06T05:08:03;14.40;99.90
17202;DHT22;8717;53.588;10.176;2023-08-06T05:10:30;14.40;99.90
17202;DHT22;8717;53.588;10.176;2023-08-06T05:12:57;14.40;99.90
17202;DHT22;8717;53.588;10.176;2023-08-06T05:15:24;14.40;99.90
17202;DHT22;8717;53.588;10.176;2023-08-06T05:17:53;14.40;99.90
17202;DHT22;8717;53.588;10.176;2023-08-06T05:20:20;14.40;99.90
17202;DHT22;8717;53.588;10.176;2023-08-06T05:22:47;14.40;99.90
17202;DHT22;8717;53.588;10.176;2023-08-06T05:25:14;14.50;99.90
17202;DHT22;8717;53.588;10.176;2023-08-06T05:27:41;14.50;99.90
17202;DHT22;8717;53.588;10.176;2023-08-06T05:30:08;14.50;99.90
17202;DHT22;8717;53.588;10.176;2023-08-06T05:32:35;14.50;99.90
17202;DHT22;8717;53.588;10.176;2023-08-06T05:35:04;14.50;99.90
17202;DHT22;8717;53.588;10.176;2023-08-06T05:37:31;14.60;99.90
17202;DHT22;8717;53.588;10.176;2023-08-06T05:39:58;14.60;99.90
17202;DHT22;8717;53.588;10.176;2023-08-06T05:42:25;14.60;99.90
17202;DHT22;8717;53.588;10.176;2023-08-06T05:44:51;14.70;99.90
17202;DHT22;8717;53.588;10.176;2023-08-06T05:47:18;14.70;99.90
17202;DHT22;8717;53.588;10.176;2023-08-06T05:49:45;14.80;99.90
17202;DHT22;8717;53.588;10.176;2023-08-06T05:52:13;14.90;99.90
17202;DHT22;8717;53.588;10.176;2023-08-06T05:54:40;14.90;99.90
17202;DHT22;8717;53.588;10.176;2023-08-06T05:57:07;14.90;99.90
17202;DHT22;8717;53.588;10.176;2023-08-06T05:59:33;15.00;99.90
17202;DHT22;8717;53.588;10.176;2023-08-06T06:02:00;15.00;99.90
17202;DHT22;8717;53.588;10.176;2023-08-06T06:04:28;15.00;99.90
17202;DHT22;8717;53.588;10.176;2023-08-06T06:06:54;15.10;99.90
17202;DHT22;8717;53.588;10.176;2023-08-06T06:09:22;15.10;99.90
17202;DHT22;8717;53.588;10.176;2023-08-06T06:11:49;15.10;99.90
17202;DHT22;8717;53.588;10.176;2023-08-06T06:14:16;15.10;99.90
17202;DHT22;8717;53.588;10.176;2023-08-06T06:16:42;15.20;99.90
17202;DHT22;8717;53.588;10.176;2023-08-06T06:19:09;15.20;99.90
17202;DHT22;8717;53.588;10.176;2023-08-06T06:21:36;15.20;99.90
17202;DHT22;8717;53.588;10.176;2023-08-06T06:24:03;15.30;99.90
17202;DHT22;8717;53.588;10.176;2023-08-06T06:26:32;15.20;99.90
17202;DHT22;8717;53.588;10.176;2023-08-06T06:28:58;15.30;99.90
17202;DHT22;8717;53.588;10.176;2023-08-06T06:31:25;15.30;99.90
17202;DHT22;8717;53.588;10.176;2023-08-06T06:33:52;15.40;99.90
17202;DHT22;8717;53.588;10.176;2023-08-06T06:36:19;15.40;99.90
17202;DHT22;8717;53.588;10.176;2023-08-06T06:38:46;15.40;99.90
17202;DHT22;8717;53.588;10.176;2023-08-06T06:41:14;15.50;99.90
17202;DHT22;8717;53.588;10.176;2023-08-06T06:43:42;15.50;99.90
17202;DHT22;8717;53.588;10.176;2023-08-06T06:46:09;15.60;99.90
17202;DHT22;8717;53.588;10.176;2023-08-06T06:48:36;15.60;99.90
17202;DHT22;8717;53.588;10.176;2023-08-06T06:51:02;15.60;99.90
17202;DHT22;8717;53.588;10.176;2023-08-06T06:53:29;15.70;99.90
17202;DHT22;8717;53.588;10.176;2023-08-06T06:55:56;15.80;99.90
17202;DHT22;8717;53.588;10.176;2023-08-06T06:58:27;15.80;99.90
17202;DHT22;8717;53.588;10.176;2023-08-06T07:00:55;15.80;99.90
17202;DHT22;8717;53.588;10.176;2023-08-06T07:03:22;15.90;99.90
17202;DHT22;8717;53.588;10.176;2023-08-06T07:05:49;15.90;99.90
17202;DHT22;8717;53.588;10.176;2023-08-06T07:08:16;15.90;99.90
17202;DHT22;8717;53.588;10.176;2023-08-06T07:10:43;15.90;99.90
17202;DHT22;8717;53.588;10.176;2023-08-06T07:13:09;16.00;99.90
17202;DHT22;8717;53.588;10.176;2023-08-06T07:15:36;16.00;99.90
17202;DHT22;8717;53.588;10.176;2023-08-06T07:18:04;16.00;99.90
17202;DHT22;8717;53.588;10.176;2023-08-06T07:20:31;16.10;99.90
17202;DHT22;8717;53.588;10.176;2023-08-06T07:23:00;16.20;99.90
17202;DHT22;8717;53.588;10.176;2023-08-06T07:25:27;16.20;99.90
17202;DHT22;8717;53.588;10.176;2023-08-06T07:27:54;16.30;99.90
17202;DHT22;8717;53.588;10.176;2023-08-06T07:30:22;16.40;99.90
17202;DHT22;8717;53.588;10.176;2023-08-06T07:32:48;16.50;99.90
17202;DHT22;8717;53.588;10.176;2023-08-06T07:35:16;16.50;99.90
17202;DHT22;8717;53.588;10.176;2023-08-06T07:37:43;16.60;99.90
17202;DHT22;8717;53.588;10.176;2023-08-06T07:40:10;16.70;99.90
17202;DHT22;8717;53.588;10.176;2023-08-06T07:42:37;16.70;99.90
17202;DHT22;8717;53.588;10.176;2023-08-06T07:45:05;16.70;99.90
17202;DHT22;8717;53.588;10.176;2023-08-06T07:47:32;16.70;99.90
17202;DHT22;8717;53.588;10.176;2023-08-06T07:49:58;16.70;99.90
17202;DHT22;8717;53.588;10.176;2023-08-06T07:52:26;16.70;99.90
17202;DHT22;8717;53.588;10.176;2023-08-06T07:54:53;16.70;99.90
17202;DHT22;8717;53.588;10.176;2023-08-06T07:57:19;16.70;99.90
17202;DHT22;8717;53.588;10.176;2023-08-06T07:59:46;16.70;99.90
17202;DHT22;8717;53.588;10.176;2023-08-06T08:02:13;16.70;99.90
17202;DHT22;8717;53.588;10.176;2023-08-06T08:04:39;16.70;99.90
17202;DHT22;8717;53.588;10.176;2023-08-06T08:07:06;16.80;99.90
17202;DHT22;8717;53.588;10.176;2023-08-06T08:09:35;16.80;99.90
17202;DHT22;8717;53.588;10.176;2023-08-06T08:12:02;16.90;99.90
17202;DHT22;8717;53.588;10.176;2023-08-06T08:14:29;16.90;99.90
17202;DHT22;8717;53.588;10.176;2023-08-06T08:17:00;17.00;99.90
17202;DHT22;8717;53.588;10.176;2023-08-06T08:19:28;17.00;99.90
17202;DHT22;8717;53.588;10.176;2023-08-06T08:21:54;17.00;99.90
17202;DHT22;8717;53.588;10.176;2023-08-06T08:24:21;17.10;99.90
17202;DHT22;8717;53.588;10.176;2023-08-06T08:26:50;17.10;99.90
17202;DHT22;8717;53.588;10.176;2023-08-06T08:29:17;17.20;99.90
17202;DHT22;8717;53.588;10.176;2023-08-06T08:31:44;17.20;99.90
17202;DHT22;8717;53.588;10.176;2023-08-06T08:34:11;17.20;99.90
17202;DHT22;8717;53.588;10.176;2023-08-06T08:36:37;17.20;99.90
17202;DHT22;8717;53.588;10.176;2023-08-06T08:39:04;17.30;99.90
17202;DHT22;8717;53.588;10.176;2023-08-06T08:41:31;17.30;99.90
17202;DHT22;8717;53.588;10.176;2023-08-06T08:44:00;17.30;99.90
17202;DHT22;8717;53.588;10.176;2023-08-06T08:46:29;17.30;99.90
17202;DHT22;8717;53.588;10.176;2023-08-06T08:48:58;17.30;99.90
17202;DHT22;8717;53.588;10.176;2023-08-06T08:51:25;17.30;99.90
17202;DHT22;8717;53.588;10.176;2023-08-06T08:53:53;17.30;99.90
17202;DHT22;8717;53.588;10.176;2023-08-06T08:56:22;17.30;99.90
17202;DHT22;8717;53.588;10.176;2023-08-06T08:58:48;17.40;99.90
17202;DHT22;8717;53.588;10.176;2023-08-06T09:01:16;17.40;99.90
17202;DHT22;8717;53.588;10.176;2023-08-06T09:03:44;17.40;99.90
17202;DHT22;8717;53.588;10.176;2023-08-06T09:06:12;17.40;99.90
17202;DHT22;8717;53.588;10.176;2023-08-06T09:08:46;17.30;99.90
17202;DHT22;8717;53.588;10.176;2023-08-06T09:11:13;17.30;99.90
17202;DHT22;8717;53.588;10.176;2023-08-06T09:13:40;17.20;99.90
17202;DHT22;8717;53.588;10.176;2023-08-06T09:16:07;17.20;99.90
17202;DHT22;8717;53.588;10.176;2023-08-06T09:18:38;17.20;99.90
17202;DHT22;8717;53.588;10.176;2023-08-06T09:21:05;17.20;99.90
17202;DHT22;8717;53.588;10.176;2023-08-06T09:23:32;17.20;99.90
17202;DHT22;8717;53.588;10.176;2023-08-06T09:25:59;17.10;99.90
17202;DHT22;8717;53.588;10.176;2023-08-06T09:28:36;17.00;99.90
17202;DHT22;8717;53.588;10.176;2023-08-06T09:31:04;17.00;99.90
17202;DHT22;8717;53.588;10.176;2023-08-06T09:33:30;16.90;99.90
17202;DHT22;8717;53.588;10.176;2023-08-06T09:36:07;16.80;99.90
17202;DHT22;8717;53.588;10.176;2023-08-06T09:38:37;16.70;99.90
17202;DHT22;8717;53.588;10.176;2023-08-06T09:41:05;16.60;99.90
17202;DHT22;8717;53.588;10.176;2023-08-06T09:43:39;16.60;99.90
17202;DHT22;8717;53.588;10.176;2023-08-06T09:46:11;16.50;99.90
17202;DHT22;8717;53.588;10.176;2023-08-06T09:48:38;16.40;99.90
17202;DHT22;8717;53.588;10.176;2023-08-06T09:51:08;16.40;99.90
17202;DHT22;8717;53.588;10.176;2023-08-06T09:53:36;16.30;99.90
17202;DHT22;8717;53.588;10.176;2023-08-06T09:56:03;16.20;99.90
17202;DHT22;8717;53.588;10.176;2023-08-06T09:58:31;16.10;99.90
17202;DHT22;8717;53.588;10.176;2023-08-06T10:00:59;16.00;99.90
17202;DHT22;8717;53.588;10.176;2023-08-06T10:03:25;16.00;99.90
17202;DHT22;8717;53.588;10.176;2023-08-06T10:05:55;15.90;99.90
17202;DHT22;8717;53.588;10.176;2023-08-06T10:08:23;15.90;99.90
17202;DHT22;8717;53.588;10.176;2023-08-06T10:10:50;15.80;99.90
17202;DHT22;8717;53.588;10.176;2023-08-06T10:13:18;15.80;99.90
17202;DHT22;8717;53.588;10.176;2023-08-06T10:15:48;15.80;99.90
17202;DHT22;8717;53.588;10.176;2023-08-06T10:18:15;15.80;99.90
17202;DHT22;8717;53.588;10.176;2023-08-06T10:20:46;15.70;99.90
17202;DHT22;8717;53.588;10.176;2023-08-06T10:23:13;15.70;99.90
17202;DHT22;8717;53.588;10.176;2023-08-06T10:25:42;15.70;99.90
17202;DHT22;8717;53.588;10.176;2023-08-06T10:28:10;15.60;99.90
17202;DHT22;8717;53.588;10.176;2023-08-06T10:30:43;15.60;99.90
17202;DHT22;8717;53.588;10.176;2023-08-06T10:33:10;15.50;99.90
17202;DHT22;8717;53.588;10.176;2023-08-06T10:35:38;15.50;99.90
17202;DHT22;8717;53.588;10.176;2023-08-06T10:38:09;15.50;99.90
17202;DHT22;8717;53.588;10.176;2023-08-06T10:40:36;15.50;99.90
17202;DHT22;8717;53.588;10.176;2023-08-06T10:43:06;15.50;99.90
17202;DHT22;8717;53.588;10.176;2023-08-06T10:45:35;15.50;99.90
17202;DHT22;8717;53.588;10.176;2023-08-06T10:48:02;15.50;99.90
17202;DHT22;8717;53.588;10.176;2023-08-06T10:50:29;15.50;99.90
17202;DHT22;8717;53.588;10.176;2023-08-06T10:52:57;15.50;99.90
17202;DHT22;8717;53.588;10.176;2023-08-06T10:55:25;15.50;99.90
17202;DHT22;8717;53.588;10.176;2023-08-06T10:57:53;15.50;99.90
17202;DHT22;8717;53.588;10.176;2023-08-06T11:00:22;15.40;99.90
17202;DHT22;8717;53.588;10.176;2023-08-06T11:02:49;15.50;99.90
17202;DHT22;8717;53.588;10.176;2023-08-06T11:05:16;15.50;99.90
17202;DHT22;8717;53.588;10.176;2023-08-06T11:07:43;15.50;99.90
17202;DHT22;8717;53.588;10.176;2023-08-06T11:10:11;15.50;99.90
17202;DHT22;8717;53.588;10.176;2023-08-06T11:12:38;15.50;99.90
17202;DHT22;8717;53.588;10.176;2023-08-06T11:15:07;15.60;99.90
17202;DHT22;8717;53.588;10.176;2023-08-06T11:17:35;15.60;99.90
17202;DHT22;8717;53.588;10.176;2023-08-06T11:20:03;15.70;99.90
17202;DHT22;8717;53.588;10.176;2023-08-06T11:22:30;15.70;99.90
17202;DHT22;8717;53.588;10.176;2023-08-06T11:24:57;15.70;99.90
17202;DHT22;8717;53.588;10.176;2023-08-06T11:27:26;15.70;99.90
17202;DHT22;8717;53.588;10.176;2023-08-06T11:29:53;15.80;99.90
17202;DHT22;8717;53.588;10.176;2023-08-06T11:32:20;15.80;99.90
17202;DHT22;8717;53.588;10.176;2023-08-06T11:34:48;15.80;99.90
17202;DHT22;8717;53.588;10.176;2023-08-06T11:37:14;15.90;99.90
17202;DHT22;8717;53.588;10.176;2023-08-06T11:39:47;15.90;99.90
17202;DHT22;8717;53.588;10.176;2023-08-06T11:42:14;16.00;99.90
17202;DHT22;8717;53.588;10.176;2023-08-06T11:44:41;16.00;99.90
17202;DHT22;8717;53.588;10.176;2023-08-06T11:47:13;16.10;99.90
17202;DHT22;8717;53.588;10.176;2023-08-06T11:49:41;16.10;99.90
17202;DHT22;8717;53.588;10.176;2023-08-06T11:52:15;16.10;99.90
17202;DHT22;8717;53.588;10.176;2023-08-06T11:54:44;16.10;99.90
17202;DHT22;8717;53.588;10.176;2023-08-06T11:57:11;16.20;99.90
17202;DHT22;8717;53.588;10.176;2023-08-06T11:59:38;16.20;99.90
17202;DHT22;8717;53.588;10.176;2023-08-06T12:02:08;16.20;99.90
17202;DHT22;8717;53.588;10.176;2023-08-06T12:04:57;16.20;99.90
17202;DHT22;8717;53.588;10.176;2023-08-06T12:07:30;16.20;99.90
17202;DHT22;8717;53.588;10.176;2023-08-06T12:09:58;16.30;99.90
17202;DHT22;8717;53.588;10.176;2023-08-06T12:12:25;16.40;99.90
17202;DHT22;8717;53.588;10.176;2023-08-06T12:14:51;16.50;99.90
17202;DHT22;8717;53.588;10.176;2023-08-06T12:17:18;16.60;99.90
17202;DHT22;8717;53.588;10.176;2023-08-06T12:19:45;16.70;99.90
17202;DHT22;8717;53.588;10.176;2023-08-06T12:22:13;16.80;99.90
17202;DHT22;8717;53.588;10.176;2023-08-06T12:24:41;16.90;99.90
17202;DHT22;8717;53.588;10.176;2023-08-06T12:27:08;17.00;99.90
17202;DHT22;8717;53.588;10.176;2023-08-06T12:29:35;17.10;99.90
17202;DHT22;8717;53.588;10.176;2023-08-06T12:32:03;17.20;99.90
17202;DHT22;8717;53.588;10.176;2023-08-06T12:34:30;17.30;99.90
17202;DHT22;8717;53.588;10.176;2023-08-06T12:36:56;17.40;99.90
17202;DHT22;8717;53.588;10.176;2023-08-06T12:39:23;17.40;99.90
17202;DHT22;8717;53.588;10.176;2023-08-06T12:41:51;17.50;99.90
17202;DHT22;8717;53.588;10.176;2023-08-06T12:44:18;17.60;99.90
17202;DHT22;8717;53.588;10.176;2023-08-06T12:46:44;17.70;99.90
17202;DHT22;8717;53.588;10.176;2023-08-06T12:49:11;17.80;99.90
17202;DHT22;8717;53.588;10.176;2023-08-06T12:51:38;17.80;99.90
17202;DHT22;8717;53.588;10.176;2023-08-06T12:54:04;17.90;99.90
17202;DHT22;8717;53.588;10.176;2023-08-06T12:56:31;18.00;99.90
17202;DHT22;8717;53.588;10.176;2023-08-06T12:58:59;18.00;99.90
17202;DHT22;8717;53.588;10.176;2023-08-06T13:01:25;18.10;99.90
17202;DHT22;8717;53.588;10.176;2023-08-06T13:03:52;18.20;99.90
17202;DHT22;8717;53.588;10.176;2023-08-06T13:06:19;18.30;99.90
17202;DHT22;8717;53.588;10.176;2023-08-06T13:08:45;18.40;99.90
17202;DHT22;8717;53.588;10.176;2023-08-06T13:11:12;18.40;99.90
17202;DHT22;8717;53.588;10.176;2023-08-06T13:13:39;18.50;99.90
17202;DHT22;8717;53.588;10.176;2023-08-06T13:16:07;18.60;99.90
17202;DHT22;8717;53.588;10.176;2023-08-06T13:18:33;18.60;99.90
17202;DHT22;8717;53.588;10.176;2023-08-06T13:21:00;18.70;99.90
17202;DHT22;8717;53.588;10.176;2023-08-06T13:23:27;18.80;99.90
17202;DHT22;8717;53.588;10.176;2023-08-06T13:25:53;18.80;99.90
17202;DHT22;8717;53.588;10.176;2023-08-06T13:28:20;18.90;99.90
17202;DHT22;8717;53.588;10.176;2023-08-06T13:30:48;19.00;99.90
17202;DHT22;8717;53.588;10.176;2023-08-06T13:33:16;19.00;99.90
17202;DHT22;8717;53.588;10.176;2023-08-06T13:35:43;19.10;99.90
17202;DHT22;8717;53.588;10.176;2023-08-06T13:38:09;19.20;99.90
17202;DHT22;8717;53.588;10.176;2023-08-06T13:40:36;19.30;99.90
17202;DHT22;8717;53.588;10.176;2023-08-06T13:43:03;19.40;99.90
17202;DHT22;8717;53.588;10.176;2023-08-06T13:45:29;19.40;99.90
17202;DHT22;8717;53.588;10.176;2023-08-06T13:47:59;19.50;99.90
17202;DHT22;8717;53.588;10.176;2023-08-06T13:50:27;19.50;99.90
17202;DHT22;8717;53.588;10.176;2023-08-06T13:52:54;19.50;99.90
17202;DHT22;8717;53.588;10.176;2023-08-06T13:55:21;19.50;99.90
17202;DHT22;8717;53.588;10.176;2023-08-06T13:57:48;19.50;99.90
17202;DHT22;8717;53.588;10.176;2023-08-06T14:00:15;19.40;99.90
17202;DHT22;8717;53.588;10.176;2023-08-06T14:02:42;19.40;99.90
17202;DHT22;8717;53.588;10.176;2023-08-06T14:05:10;19.30;99.90
17202;DHT22;8717;53.588;10.176;2023-08-06T14:07:38;19.20;99.90
17202;DHT22;8717;53.588;10.176;2023-08-06T14:10:06;19.10;99.90
17202;DHT22;8717;53.588;10.176;2023-08-06T14:12:34;19.10;99.90
17202;DHT22;8717;53.588;10.176;2023-08-06T14:15:01;19.00;99.90
17202;DHT22;8717;53.588;10.176;2023-08-06T14:17:28;18.90;99.90
17202;DHT22;8717;53.588;10.176;2023-08-06T14:19:55;18.80;99.90
17202;DHT22;8717;53.588;10.176;2023-08-06T14:22:22;18.70;99.90
17202;DHT22;8717;53.588;10.176;2023-08-06T14:24:49;18.60;99.90
17202;DHT22;8717;53.588;10.176;2023-08-06T14:27:16;18.60;99.90
17202;DHT22;8717;53.588;10.176;2023-08-06T14:29:43;18.50;99.90
17202;DHT22;8717;53.588;10.176;2023-08-06T14:32:09;18.50;99.90
17202;DHT22;8717;53.588;10.176;2023-08-06T14:34:36;18.50;99.90
17202;DHT22;8717;53.588;10.176;2023-08-06T14:37:03;18.40;99.90
17202;DHT22;8717;53.588;10.176;2023-08-06T14:39:30;18.40;99.90
17202;DHT22;8717;53.588;10.176;2023-08-06T14:41:58;18.40;99.90
17202;DHT22;8717;53.588;10.176;2023-08-06T14:44:24;18.30;99.90
17202;DHT22;8717;53.588;10.176;2023-08-06T14:46:51;18.20;99.90
17202;DHT22;8717;53.588;10.176;2023-08-06T14:49:18;18.20;99.90
17202;DHT22;8717;53.588;10.176;2023-08-06T14:51:45;18.10;99.90
17202;DHT22;8717;53.588;10.176;2023-08-06T14:54:11;18.10;99.90
17202;DHT22;8717;53.588;10.176;2023-08-06T14:56:38;18.00;99.90
17202;DHT22;8717;53.588;10.176;2023-08-06T14:59:06;18.00;99.90
17202;DHT22;8717;53.588;10.176;2023-08-06T15:01:33;17.90;99.90
17202;DHT22;8717;53.588;10.176;2023-08-06T15:03:59;17.90;99.90
17202;DHT22;8717;53.588;10.176;2023-08-06T15:06:26;17.90;99.90
17202;DHT22;8717;53.588;10.176;2023-08-06T15:08:53;17.90;99.90
17202;DHT22;8717;53.588;10.176;2023-08-06T15:11:23;17.80;99.90
17202;DHT22;8717;53.588;10.176;2023-08-06T15:13:51;17.80;99.90
17202;DHT22;8717;53.588;10.176;2023-08-06T15:16:19;17.80;99.90
17202;DHT22;8717;53.588;10.176;2023-08-06T15:18:46;17.80;99.90
17202;DHT22;8717;53.588;10.176;2023-08-06T15:21:14;17.80;99.90
17202;DHT22;8717;53.588;10.176;2023-08-06T15:23:41;17.80;99.90
17202;DHT22;8717;53.588;10.176;2023-08-06T15:26:07;17.80;99.90
17202;DHT22;8717;53.588;10.176;2023-08-06T15:28:34;17.80;99.90
17202;DHT22;8717;53.588;10.176;2023-08-06T15:31:01;17.90;99.90
17202;DHT22;8717;53.588;10.176;2023-08-06T15:33:31;17.90;99.90